sensor_id;sensor_type;location;lat;lon;timestamp;P1;durP1;ratioP1;P2;durP2;ratioP2
18174;SDS011;9212;50.894;16.714;2023-08-24T00:00:49;7.50;;;3.50;;
18174;SDS011;9212;50.894;16.714;2023-08-24T00:03:16;3.87;;;3.40;;
18174;SDS011;9212;50.894;16.714;2023-08-24T00:05:44;4.73;;;3.00;;
18174;SDS011;9212;50.894;16.714;2023-08-24T00:08:11;6.00;;;3.03;;
18174;SDS011;9212;50.894;16.714;2023-08-24T00:10:38;11.80;;;3.67;;
18174;SDS011;9212;50.894;16.714;2023-08-24T00:13:05;6.07;;;3.50;;
18174;SDS011;9212;50.894;16.714;2023-08-24T00:15:33;8.20;;;3.40;;
18174;SDS011;9212;50.894;16.714;2023-08-24T00:18:00;4.07;;;3.20;;
18174;SDS011;9212;50.894;16.714;2023-08-24T00:20:28;6.17;;;3.63;;
18174;SDS011;9212;50.894;16.714;2023-08-24T00:22:58;3.57;;;3.17;;
18174;SDS011;9212;50.894;16.714;2023-08-24T00:25:25;3.77;;;3.30;;
18174;SDS011;9212;50.894;16.714;2023-08-24T00:27:53;7.63;;;3.50;;
18174;SDS011;9212;50.894;16.714;2023-08-24T00:30:20;9.73;;;3.50;;
18174;SDS011;9212;50.894;16.714;2023-08-24T00:32:47;8.33;;;3.67;;
18174;SDS011;9212;50.894;16.714;2023-08-24T00:35:14;9.80;;;3.70;;
18174;SDS011;9212;50.894;16.714;2023-08-24T00:37:41;5.33;;;3.33;;
18174;SDS011;9212;50.894;16.714;2023-08-24T00:40:10;13.47;;;3.87;;
18174;SDS011;9212;50.894;16.714;2023-08-24T00:42:37;6.87;;;3.50;;
18174;SDS011;9212;50.894;16.714;2023-08-24T00:45:06;3.87;;;3.20;;
18174;SDS011;9212;50.894;16.714;2023-08-24T00:47:34;3.97;;;3.20;;
18174;SDS011;9212;50.894;16.714;2023-08-24T00:50:02;4.50;;;3.80;;
18174;SDS011;9212;50.894;16.714;2023-08-24T00:52:31;8.70;;;3.53;;
18174;SDS011;9212;50.894;16.714;2023-08-24T00:54:59;6.20;;;3.63;;
18174;SDS011;9212;50.894;16.714;2023-08-24T00:57:28;6.40;;;3.17;;
18174;SDS011;9212;50.894;16.714;2023-08-24T00:59:56;7.30;;;3.60;;
18174;SDS011;9212;50.894;16.714;2023-08-24T01:02:25;10.20;;;3.60;;
18174;SDS011;9212;50.894;16.714;2023-08-24T01:04:52;4.43;;;3.50;;
18174;SDS011;9212;50.894;16.714;2023-08-24T01:07:19;6.93;;;3.43;;
18174;SDS011;9212;50.894;16.714;2023-08-24T01:09:47;5.50;;;4.00;;
18174;SDS011;9212;50.894;16.714;2023-08-24T01:12:17;3.97;;;3.50;;
18174;SDS011;9212;50.894;16.714;2023-08-24T01:14:54;10.13;;;3.83;;
18174;SDS011;9212;50.894;16.714;2023-08-24T01:17:28;5.43;;;3.90;;
18174;SDS011;9212;50.894;16.714;2023-08-24T01:19:57;4.70;;;3.57;;
18174;SDS011;9212;50.894;16.714;2023-08-24T01:22:30;7.30;;;3.63;;
18174;SDS011;9212;50.894;16.714;2023-08-24T01:25:01;5.67;;;3.77;;
18174;SDS011;9212;50.894;16.714;2023-08-24T01:27:35;8.37;;;4.27;;
18174;SDS011;9212;50.894;16.714;2023-08-24T01:30:04;4.20;;;3.70;;
18174;SDS011;9212;50.894;16.714;2023-08-24T01:32:32;4.73;;;3.87;;
18174;SDS011;9212;50.894;16.714;2023-08-24T01:35:02;7.33;;;4.60;;
18174;SDS011;9212;50.894;16.714;2023-08-24T01:37:32;6.53;;;3.90;;
18174;SDS011;9212;50.894;16.714;2023-08-24T01:40:03;13.50;;;4.43;;
18174;SDS011;9212;50.894;16.714;2023-08-24T01:42:37;7.53;;;3.73;;
18174;SDS011;9212;50.894;16.714;2023-08-24T01:45:11;5.40;;;4.00;;
18174;SDS011;9212;50.894;16.714;2023-08-24T01:47:40;7.53;;;4.07;;
18174;SDS011;9212;50.894;16.714;2023-08-24T01:50:09;9.40;;;3.70;;
18174;SDS011;9212;50.894;16.714;2023-08-24T01:52:36;5.13;;;3.43;;
18174;SDS011;9212;50.894;16.714;2023-08-24T01:55:04;6.40;;;3.53;;
18174;SDS011;9212;50.894;16.714;2023-08-24T01:57:31;6.73;;;3.87;;
18174;SDS011;9212;50.894;16.714;2023-08-24T02:00:00;9.63;;;3.50;;
18174;SDS011;9212;50.894;16.714;2023-08-24T02:02:27;7.60;;;4.27;;
18174;SDS011;9212;50.894;16.714;2023-08-24T02:04:54;4.80;;;3.70;;
18174;SDS011;9212;50.894;16.714;2023-08-24T02:07:22;4.30;;;3.60;;
18174;SDS011;9212;50.894;16.714;2023-08-24T02:09:49;3.80;;;3.40;;
18174;SDS011;9212;50.894;16.714;2023-08-24T02:12:16;6.13;;;3.63;;
18174;SDS011;9212;50.894;16.714;2023-08-24T02:14:43;11.27;;;4.13;;
18174;SDS011;9212;50.894;16.714;2023-08-24T02:17:12;7.23;;;3.70;;
18174;SDS011;9212;50.894;16.714;2023-08-24T02:19:41;6.37;;;4.10;;
18174;SDS011;9212;50.894;16.714;2023-08-24T02:22:08;10.80;;;4.13;;
18174;SDS011;9212;50.894;16.714;2023-08-24T02:24:35;5.77;;;4.20;;
18174;SDS011;9212;50.894;16.714;2023-08-24T02:27:02;5.33;;;4.07;;
18174;SDS011;9212;50.894;16.714;2023-08-24T02:29:32;6.07;;;4.30;;
18174;SDS011;9212;50.894;16.714;2023-08-24T02:31:59;5.00;;;4.30;;
18174;SDS011;9212;50.894;16.714;2023-08-24T02:34:28;4.97;;;4.20;;
18174;SDS011;9212;50.894;16.714;2023-08-24T02:36:56;5.43;;;4.40;;
18174;SDS011;9212;50.894;16.714;2023-08-24T02:39:23;5.40;;;4.10;;
18174;SDS011;9212;50.894;16.714;2023-08-24T02:41:50;5.67;;;3.73;;
18174;SDS011;9212;50.894;16.714;2023-08-24T02:44:17;9.47;;;4.17;;
18174;SDS011;9212;50.894;16.714;2023-08-24T02:46:44;5.77;;;4.37;;
18174;SDS011;9212;50.894;16.714;2023-08-24T02:49:11;7.67;;;4.30;;
18174;SDS011;9212;50.894;16.714;2023-08-24T02:51:40;10.13;;;4.30;;
18174;SDS011;9212;50.894;16.714;2023-08-24T02:54:07;6.03;;;4.13;;
18174;SDS011;9212;50.894;16.714;2023-08-24T02:56:34;5.43;;;4.47;;
18174;SDS011;9212;50.894;16.714;2023-08-24T02:59:01;7.37;;;4.07;;
18174;SDS011;9212;50.894;16.714;2023-08-24T03:01:28;7.13;;;4.00;;
18174;SDS011;9212;50.894;16.714;2023-08-24T03:03:59;5.40;;;4.30;;
18174;SDS011;9212;50.894;16.714;2023-08-24T03:06:29;9.47;;;3.87;;
18174;SDS011;9212;50.894;16.714;2023-08-24T03:08:59;4.73;;;4.07;;
18174;SDS011;9212;50.894;16.714;2023-08-24T03:11:26;12.33;;;4.40;;
18174;SDS011;9212;50.894;16.714;2023-08-24T03:13:53;7.83;;;4.40;;
18174;SDS011;9212;50.894;16.714;2023-08-24T03:16:22;5.30;;;4.00;;
18174;SDS011;9212;50.894;16.714;2023-08-24T03:18:49;8.20;;;4.03;;
18174;SDS011;9212;50.894;16.714;2023-08-24T03:21:16;4.73;;;4.23;;
18174;SDS011;9212;50.894;16.714;2023-08-24T03:23:45;6.37;;;4.13;;
18174;SDS011;9212;50.894;16.714;2023-08-24T03:26:13;7.23;;;3.93;;
18174;SDS011;9212;50.894;16.714;2023-08-24T03:28:41;9.47;;;4.10;;
18174;SDS011;9212;50.894;16.714;2023-08-24T03:31:09;8.83;;;3.90;;
18174;SDS011;9212;50.894;16.714;2023-08-24T03:33:36;7.47;;;4.30;;
18174;SDS011;9212;50.894;16.714;2023-08-24T03:36:03;6.03;;;4.17;;
18174;SDS011;9212;50.894;16.714;2023-08-24T03:38:30;5.40;;;4.00;;
18174;SDS011;9212;50.894;16.714;2023-08-24T03:41:00;6.90;;;4.03;;
18174;SDS011;9212;50.894;16.714;2023-08-24T03:43:31;7.57;;;4.20;;
18174;SDS011;9212;50.894;16.714;2023-08-24T03:45:59;5.80;;;4.40;;
18174;SDS011;9212;50.894;16.714;2023-08-24T03:48:26;7.47;;;4.70;;
18174;SDS011;9212;50.894;16.714;2023-08-24T03:50:54;9.50;;;3.80;;
18174;SDS011;9212;50.894;16.714;2023-08-24T03:53:21;6.17;;;4.33;;
18174;SDS011;9212;50.894;16.714;2023-08-24T03:55:49;6.70;;;4.37;;
18174;SDS011;9212;50.894;16.714;2023-08-24T03:58:18;6.03;;;4.10;;
18174;SDS011;9212;50.894;16.714;2023-08-24T04:00:46;5.23;;;3.93;;
18174;SDS011;9212;50.894;16.714;2023-08-24T04:03:15;7.30;;;4.23;;
18174;SDS011;9212;50.894;16.714;2023-08-24T04:05:43;10.10;;;4.67;;
18174;SDS011;9212;50.894;16.714;2023-08-24T04:08:12;7.17;;;4.07;;
18174;SDS011;9212;50.894;16.714;2023-08-24T04:10:43;7.03;;;4.50;;
18174;SDS011;9212;50.894;16.714;2023-08-24T04:13:11;8.50;;;4.50;;
18174;SDS011;9212;50.894;16.714;2023-08-24T04:15:38;7.90;;;4.60;;
18174;SDS011;9212;50.894;16.714;2023-08-24T04:18:07;6.43;;;4.37;;
18174;SDS011;9212;50.894;16.714;2023-08-24T04:20:34;8.40;;;4.57;;
18174;SDS011;9212;50.894;16.714;2023-08-24T04:23:04;5.73;;;4.50;;
18174;SDS011;9212;50.894;16.714;2023-08-24T04:25:31;6.27;;;4.40;;
18174;SDS011;9212;50.894;16.714;2023-08-24T04:28:00;7.63;;;4.10;;
18174;SDS011;9212;50.894;16.714;2023-08-24T04:30:30;4.93;;;4.23;;
18174;SDS011;9212;50.894;16.714;2023-08-24T04:48:21;5.13;;;4.10;;
18174;SDS011;9212;50.894;16.714;2023-08-24T04:50:48;5.57;;;4.10;;
18174;SDS011;9212;50.894;16.714;2023-08-24T04:53:16;5.97;;;4.13;;
18174;SDS011;9212;50.894;16.714;2023-08-24T04:55:44;5.60;;;4.17;;
18174;SDS011;9212;50.894;16.714;2023-08-24T04:58:11;5.63;;;3.97;;
18174;SDS011;9212;50.894;16.714;2023-08-24T05:00:39;5.77;;;4.40;;
18174;SDS011;9212;50.894;16.714;2023-08-24T05:03:06;6.43;;;4.10;;
18174;SDS011;9212;50.894;16.714;2023-08-24T05:05:36;7.17;;;3.90;;
18174;SDS011;9212;50.894;16.714;2023-08-24T05:08:04;7.20;;;4.13;;
18174;SDS011;9212;50.894;16.714;2023-08-24T05:10:35;6.83;;;3.87;;
18174;SDS011;9212;50.894;16.714;2023-08-24T05:13:03;5.70;;;4.30;;
18174;SDS011;9212;50.894;16.714;2023-08-24T05:15:31;6.40;;;4.03;;
18174;SDS011;9212;50.894;16.714;2023-08-24T05:17:58;5.63;;;3.80;;
18174;SDS011;9212;50.894;16.714;2023-08-24T05:20:25;7.23;;;4.00;;
18174;SDS011;9212;50.894;16.714;2023-08-24T05:22:54;7.93;;;4.20;;
18174;SDS011;9212;50.894;16.714;2023-08-24T05:25:21;4.53;;;3.92;;
18174;SDS011;9212;50.894;16.714;2023-08-24T05:27:48;4.57;;;3.20;;
18174;SDS011;9212;50.894;16.714;2023-08-24T05:30:16;4.07;;;2.65;;
18174;SDS011;9212;50.894;16.714;2023-08-24T05:32:43;3.00;;;2.30;;
18174;SDS011;9212;50.894;16.714;2023-08-24T05:35:10;4.68;;;2.78;;
18174;SDS011;9212;50.894;16.714;2023-08-24T05:37:37;3.40;;;2.45;;
18174;SDS011;9212;50.894;16.714;2023-08-24T05:40:06;2.15;;;1.80;;
18174;SDS011;9212;50.894;16.714;2023-08-24T05:42:34;2.80;;;2.08;;
18174;SDS011;9212;50.894;16.714;2023-08-24T05:45:02;2.38;;;2.17;;
18174;SDS011;9212;50.894;16.714;2023-08-24T05:47:29;2.30;;;2.10;;
18174;SDS011;9212;50.894;16.714;2023-08-24T05:49:56;4.20;;;2.22;;
18174;SDS011;9212;50.894;16.714;2023-08-24T05:52:23;3.65;;;2.15;;
18174;SDS011;9212;50.894;16.714;2023-08-24T05:54:52;3.58;;;2.15;;
18174;SDS011;9212;50.894;16.714;2023-08-24T05:57:21;3.13;;;2.22;;
18174;SDS011;9212;50.894;16.714;2023-08-24T05:59:48;3.15;;;2.10;;
18174;SDS011;9212;50.894;16.714;2023-08-24T06:02:15;2.40;;;2.03;;
18174;SDS011;9212;50.894;16.714;2023-08-24T06:04:42;3.00;;;2.00;;
18174;SDS011;9212;50.894;16.714;2023-08-24T06:07:09;4.28;;;2.00;;
18174;SDS011;9212;50.894;16.714;2023-08-24T06:09:36;3.03;;;1.83;;
18174;SDS011;9212;50.894;16.714;2023-08-24T06:12:04;3.50;;;1.98;;
18174;SDS011;9212;50.894;16.714;2023-08-24T06:14:33;1.95;;;1.80;;
18174;SDS011;9212;50.894;16.714;2023-08-24T06:17:00;2.13;;;1.83;;
18174;SDS011;9212;50.894;16.714;2023-08-24T06:19:30;2.58;;;1.60;;
18174;SDS011;9212;50.894;16.714;2023-08-24T06:21:57;6.60;;;2.20;;
18174;SDS011;9212;50.894;16.714;2023-08-24T06:24:24;5.20;;;2.00;;
18174;SDS011;9212;50.894;16.714;2023-08-24T06:26:52;4.55;;;1.90;;
18174;SDS011;9212;50.894;16.714;2023-08-24T06:29:20;6.10;;;2.40;;
18174;SDS011;9212;50.894;16.714;2023-08-24T06:31:48;1.95;;;1.80;;
18174;SDS011;9212;50.894;16.714;2023-08-24T06:34:15;4.00;;;1.65;;
18174;SDS011;9212;50.894;16.714;2023-08-24T06:36:42;5.70;;;2.00;;
18174;SDS011;9212;50.894;16.714;2023-08-24T06:39:09;6.03;;;1.80;;
18174;SDS011;9212;50.894;16.714;2023-08-24T06:41:36;2.67;;;1.90;;
18174;SDS011;9212;50.894;16.714;2023-08-24T06:44:03;2.67;;;1.80;;
18174;SDS011;9212;50.894;16.714;2023-08-24T06:46:31;3.70;;;1.77;;
18174;SDS011;9212;50.894;16.714;2023-08-24T06:48:59;2.13;;;1.65;;
18174;SDS011;9212;50.894;16.714;2023-08-24T06:51:26;4.72;;;1.60;;
18174;SDS011;9212;50.894;16.714;2023-08-24T06:53:54;3.00;;;1.80;;
18174;SDS011;9212;50.894;16.714;2023-08-24T06:56:21;4.60;;;1.70;;
18174;SDS011;9212;50.894;16.714;2023-08-24T06:58:52;2.25;;;1.77;;
18174;SDS011;9212;50.894;16.714;2023-08-24T07:01:20;3.17;;;1.73;;
18174;SDS011;9212;50.894;16.714;2023-08-24T07:03:49;3.92;;;1.88;;
18174;SDS011;9212;50.894;16.714;2023-08-24T07:06:17;2.70;;;1.73;;
18174;SDS011;9212;50.894;16.714;2023-08-24T07:08:44;2.38;;;2.00;;
18174;SDS011;9212;50.894;16.714;2023-08-24T07:11:11;1.77;;;1.67;;
18174;SDS011;9212;50.894;16.714;2023-08-24T07:13:40;3.70;;;2.05;;
18174;SDS011;9212;50.894;16.714;2023-08-24T07:16:07;3.42;;;1.90;;
18174;SDS011;9212;50.894;16.714;2023-08-24T07:18:34;2.10;;;1.85;;
18174;SDS011;9212;50.894;16.714;2023-08-24T07:21:03;3.80;;;1.80;;
18174;SDS011;9212;50.894;16.714;2023-08-24T07:23:31;3.78;;;1.80;;
18174;SDS011;9212;50.894;16.714;2023-08-24T07:25:59;1.88;;;1.77;;
18174;SDS011;9212;50.894;16.714;2023-08-24T07:28:26;5.90;;;1.90;;
18174;SDS011;9212;50.894;16.714;2023-08-24T07:30:53;4.55;;;1.40;;
18174;SDS011;9212;50.894;16.714;2023-08-24T07:33:21;3.78;;;1.75;;
18174;SDS011;9212;50.894;16.714;2023-08-24T07:35:48;2.55;;;1.70;;
18174;SDS011;9212;50.894;16.714;2023-08-24T07:38:15;5.50;;;1.63;;
18174;SDS011;9212;50.894;16.714;2023-08-24T07:40:43;4.28;;;1.80;;
18174;SDS011;9212;50.894;16.714;2023-08-24T07:43:10;5.28;;;1.90;;
18174;SDS011;9212;50.894;16.714;2023-08-24T07:45:37;1.73;;;1.52;;
18174;SDS011;9212;50.894;16.714;2023-08-24T07:48:06;7.50;;;1.65;;
18174;SDS011;9212;50.894;16.714;2023-08-24T07:50:33;2.83;;;1.80;;
18174;SDS011;9212;50.894;16.714;2023-08-24T07:53:07;2.90;;;1.58;;
18174;SDS011;9212;50.894;16.714;2023-08-24T07:55:37;3.35;;;1.60;;
18174;SDS011;9212;50.894;16.714;2023-08-24T07:58:05;4.85;;;1.65;;
18174;SDS011;9212;50.894;16.714;2023-08-24T08:00:32;3.85;;;1.58;;
18174;SDS011;9212;50.894;16.714;2023-08-24T08:03:00;2.92;;;1.80;;
18174;SDS011;9212;50.894;16.714;2023-08-24T08:05:30;2.72;;;1.63;;
18174;SDS011;9212;50.894;16.714;2023-08-24T08:07:57;2.83;;;1.70;;
18174;SDS011;9212;50.894;16.714;2023-08-24T08:10:25;6.53;;;1.95;;
18174;SDS011;9212;50.894;16.714;2023-08-24T08:12:51;6.10;;;1.63;;
18174;SDS011;9212;50.894;16.714;2023-08-24T08:15:20;2.92;;;1.70;;
18174;SDS011;9212;50.894;16.714;2023-08-24T08:17:47;5.15;;;2.05;;
18174;SDS011;9212;50.894;16.714;2023-08-24T08:20:15;6.40;;;1.83;;
18174;SDS011;9212;50.894;16.714;2023-08-24T08:22:42;2.45;;;1.63;;
18174;SDS011;9212;50.894;16.714;2023-08-24T08:25:09;4.07;;;1.90;;
18174;SDS011;9212;50.894;16.714;2023-08-24T08:27:37;10.70;;;1.60;;
18174;SDS011;9212;50.894;16.714;2023-08-24T08:30:05;3.08;;;1.38;;
18174;SDS011;9212;50.894;16.714;2023-08-24T08:32:34;2.40;;;1.70;;
18174;SDS011;9212;50.894;16.714;2023-08-24T08:35:02;3.88;;;2.05;;
18174;SDS011;9212;50.894;16.714;2023-08-24T08:37:32;6.15;;;2.00;;
18174;SDS011;9212;50.894;16.714;2023-08-24T08:39:59;3.42;;;1.52;;
18174;SDS011;9212;50.894;16.714;2023-08-24T08:42:26;4.40;;;1.70;;
18174;SDS011;9212;50.894;16.714;2023-08-24T08:44:55;4.15;;;1.67;;
18174;SDS011;9212;50.894;16.714;2023-08-24T08:47:22;3.42;;;1.65;;
18174;SDS011;9212;50.894;16.714;2023-08-24T08:49:51;5.35;;;1.52;;
18174;SDS011;9212;50.894;16.714;2023-08-24T08:52:21;2.78;;;1.80;;
18174;SDS011;9212;50.894;16.714;2023-08-24T08:54:50;1.98;;;1.65;;
18174;SDS011;9212;50.894;16.714;2023-08-24T08:57:20;3.25;;;1.60;;
18174;SDS011;9212;50.894;16.714;2023-08-24T08:59:49;3.80;;;1.73;;
18174;SDS011;9212;50.894;16.714;2023-08-24T09:02:17;3.97;;;1.75;;
18174;SDS011;9212;50.894;16.714;2023-08-24T09:04:46;3.50;;;2.00;;
18174;SDS011;9212;50.894;16.714;2023-08-24T09:07:16;3.72;;;1.83;;
18174;SDS011;9212;50.894;16.714;2023-08-24T09:09:43;4.40;;;1.52;;
18174;SDS011;9212;50.894;16.714;2023-08-24T09:12:10;2.15;;;1.60;;
18174;SDS011;9212;50.894;16.714;2023-08-24T09:14:37;3.35;;;2.05;;
18174;SDS011;9212;50.894;16.714;2023-08-24T09:17:05;6.28;;;1.75;;
18174;SDS011;9212;50.894;16.714;2023-08-24T09:19:32;6.25;;;1.90;;
18174;SDS011;9212;50.894;16.714;2023-08-24T09:22:01;7.20;;;2.22;;
18174;SDS011;9212;50.894;16.714;2023-08-24T09:24:32;3.95;;;1.98;;
18174;SDS011;9212;50.894;16.714;2023-08-24T09:27:00;7.18;;;1.90;;
18174;SDS011;9212;50.894;16.714;2023-08-24T09:29:32;4.05;;;1.65;;
18174;SDS011;9212;50.894;16.714;2023-08-24T09:32:03;6.30;;;2.10;;
18174;SDS011;9212;50.894;16.714;2023-08-24T09:34:33;4.38;;;1.80;;
18174;SDS011;9212;50.894;16.714;2023-08-24T09:37:02;1.90;;;1.77;;
18174;SDS011;9212;50.894;16.714;2023-08-24T09:39:31;4.13;;;2.00;;
18174;SDS011;9212;50.894;16.714;2023-08-24T09:41:59;5.00;;;1.83;;
18174;SDS011;9212;50.894;16.714;2023-08-24T09:44:28;4.80;;;2.15;;
18174;SDS011;9212;50.894;16.714;2023-08-24T09:46:55;3.17;;;1.70;;
18174;SDS011;9212;50.894;16.714;2023-08-24T09:49:23;2.17;;;1.80;;
18174;SDS011;9212;50.894;16.714;2023-08-24T09:51:51;4.82;;;2.00;;
18174;SDS011;9212;50.894;16.714;2023-08-24T09:54:25;3.97;;;1.90;;
18174;SDS011;9212;50.894;16.714;2023-08-24T09:56:57;3.85;;;1.98;;
18174;SDS011;9212;50.894;16.714;2023-08-24T09:59:27;6.68;;;2.20;;
18174;SDS011;9212;50.894;16.714;2023-08-24T10:01:57;3.17;;;2.08;;
18174;SDS011;9212;50.894;16.714;2023-08-24T10:04:28;7.68;;;2.17;;
18174;SDS011;9212;50.894;16.714;2023-08-24T10:06:59;6.95;;;1.98;;
18174;SDS011;9212;50.894;16.714;2023-08-24T10:09:34;4.20;;;1.90;;
18174;SDS011;9212;50.894;16.714;2023-08-24T10:12:12;4.57;;;2.38;;
18174;SDS011;9212;50.894;16.714;2023-08-24T10:14:44;2.72;;;1.90;;
18174;SDS011;9212;50.894;16.714;2023-08-24T10:17:19;9.10;;;2.45;;
18174;SDS011;9212;50.894;16.714;2023-08-24T10:19:47;5.40;;;1.70;;
18174;SDS011;9212;50.894;16.714;2023-08-24T10:22:16;9.60;;;2.38;;
18174;SDS011;9212;50.894;16.714;2023-08-24T10:24:45;9.50;;;2.08;;
18174;SDS011;9212;50.894;16.714;2023-08-24T10:27:15;3.40;;;2.05;;
18174;SDS011;9212;50.894;16.714;2023-08-24T10:29:44;1.90;;;1.70;;
18174;SDS011;9212;50.894;16.714;2023-08-24T10:32:11;4.18;;;1.90;;
18174;SDS011;9212;50.894;16.714;2023-08-24T10:34:40;1.83;;;1.50;;
18174;SDS011;9212;50.894;16.714;2023-08-24T10:37:08;3.92;;;1.60;;
18174;SDS011;9212;50.894;16.714;2023-08-24T10:39:36;5.72;;;1.67;;
18174;SDS011;9212;50.894;16.714;2023-08-24T10:42:04;3.20;;;1.90;;
18174;SDS011;9212;50.894;16.714;2023-08-24T10:44:38;7.45;;;2.00;;
18174;SDS011;9212;50.894;16.714;2023-08-24T10:47:06;3.90;;;2.00;;
18174;SDS011;9212;50.894;16.714;2023-08-24T10:49:34;2.75;;;1.60;;
18174;SDS011;9212;50.894;16.714;2023-08-24T10:52:16;2.97;;;1.63;;
18174;SDS011;9212;50.894;16.714;2023-08-24T10:54:44;1.95;;;1.55;;
18174;SDS011;9212;50.894;16.714;2023-08-24T10:57:20;2.30;;;1.88;;
18174;SDS011;9212;50.894;16.714;2023-08-24T11:02:42;2.63;;;1.75;;
18174;SDS011;9212;50.894;16.714;2023-08-24T11:05:17;1.73;;;1.60;;
18174;SDS011;9212;50.894;16.714;2023-08-24T11:07:48;17.67;;;2.55;;
18174;SDS011;9212;50.894;16.714;2023-08-24T11:10:19;9.15;;;1.83;;
18174;SDS011;9212;50.894;16.714;2023-08-24T11:15:43;6.18;;;1.80;;
18174;SDS011;9212;50.894;16.714;2023-08-24T11:18:11;6.18;;;1.60;;
18174;SDS011;9212;50.894;16.714;2023-08-24T11:20:49;3.78;;;1.60;;
18174;SDS011;9212;50.894;16.714;2023-08-24T11:23:18;5.20;;;2.00;;
18174;SDS011;9212;50.894;16.714;2023-08-24T11:25:46;2.28;;;1.65;;
18174;SDS011;9212;50.894;16.714;2023-08-24T11:28:17;4.13;;;1.77;;
18174;SDS011;9212;50.894;16.714;2023-08-24T11:30:52;4.38;;;1.52;;
18174;SDS011;9212;50.894;16.714;2023-08-24T11:33:29;2.75;;;1.90;;
18174;SDS011;9212;50.894;16.714;2023-08-24T11:36:00;4.03;;;1.63;;
18174;SDS011;9212;50.894;16.714;2023-08-24T11:38:36;3.00;;;1.88;;
18174;SDS011;9212;50.894;16.714;2023-08-24T11:41:10;2.03;;;1.85;;
18174;SDS011;9212;50.894;16.714;2023-08-24T11:43:38;7.55;;;2.00;;
18174;SDS011;9212;50.894;16.714;2023-08-24T11:46:06;3.53;;;1.98;;
18174;SDS011;9212;50.894;16.714;2023-08-24T11:48:33;2.40;;;1.80;;
18174;SDS011;9212;50.894;16.714;2023-08-24T11:51:06;1.65;;;1.50;;
18174;SDS011;9212;50.894;16.714;2023-08-24T11:53:36;7.05;;;1.90;;
18174;SDS011;9212;50.894;16.714;2023-08-24T11:56:03;4.35;;;1.80;;
18174;SDS011;9212;50.894;16.714;2023-08-24T11:58:30;2.00;;;1.60;;
18174;SDS011;9212;50.894;16.714;2023-08-24T12:00:58;3.25;;;1.75;;
18174;SDS011;9212;50.894;16.714;2023-08-24T12:03:30;5.10;;;1.70;;
18174;SDS011;9212;50.894;16.714;2023-08-24T12:05:58;3.63;;;1.73;;
18174;SDS011;9212;50.894;16.714;2023-08-24T12:08:27;1.70;;;1.60;;
18174;SDS011;9212;50.894;16.714;2023-08-24T12:10:56;3.30;;;1.70;;
18174;SDS011;9212;50.894;16.714;2023-08-24T12:13:27;6.03;;;1.83;;
18174;SDS011;9212;50.894;16.714;2023-08-24T12:16:01;3.95;;;1.67;;
18174;SDS011;9212;50.894;16.714;2023-08-24T12:18:35;3.97;;;1.67;;
18174;SDS011;9212;50.894;16.714;2023-08-24T12:21:12;2.17;;;1.80;;
18174;SDS011;9212;50.894;16.714;2023-08-24T12:23:41;3.85;;;1.60;;
18174;SDS011;9212;50.894;16.714;2023-08-24T12:26:16;4.80;;;1.60;;
18174;SDS011;9212;50.894;16.714;2023-08-24T12:28:48;7.05;;;1.92;;
18174;SDS011;9212;50.894;16.714;2023-08-24T12:31:15;1.55;;;1.45;;
18174;SDS011;9212;50.894;16.714;2023-08-24T12:33:57;2.67;;;1.52;;
18174;SDS011;9212;50.894;16.714;2023-08-24T12:36:25;4.78;;;1.80;;
18174;SDS011;9212;50.894;16.714;2023-08-24T12:38:52;2.75;;;1.80;;
18174;SDS011;9212;50.894;16.714;2023-08-24T12:41:19;3.78;;;1.80;;
18174;SDS011;9212;50.894;16.714;2023-08-24T12:43:46;1.75;;;1.50;;
18174;SDS011;9212;50.894;16.714;2023-08-24T12:46:13;3.83;;;1.90;;
18174;SDS011;9212;50.894;16.714;2023-08-24T12:48:40;6.10;;;1.70;;
18174;SDS011;9212;50.894;16.714;2023-08-24T12:51:09;4.35;;;1.73;;
18174;SDS011;9212;50.894;16.714;2023-08-24T12:53:36;5.20;;;2.22;;
18174;SDS011;9212;50.894;16.714;2023-08-24T12:56:03;4.40;;;1.73;;
18174;SDS011;9212;50.894;16.714;2023-08-24T12:58:30;4.05;;;1.77;;
18174;SDS011;9212;50.894;16.714;2023-08-24T13:00:59;6.85;;;1.80;;
18174;SDS011;9212;50.894;16.714;2023-08-24T13:03:27;5.22;;;2.10;;
18174;SDS011;9212;50.894;16.714;2023-08-24T13:05:54;3.65;;;2.53;;
18174;SDS011;9212;50.894;16.714;2023-08-24T13:08:22;10.48;;;2.75;;
18174;SDS011;9212;50.894;16.714;2023-08-24T13:10:51;4.80;;;2.38;;
18174;SDS011;9212;50.894;16.714;2023-08-24T13:13:18;22.55;;;8.40;;
18174;SDS011;9212;50.894;16.714;2023-08-24T13:15:47;8.10;;;4.47;;
18174;SDS011;9212;50.894;16.714;2023-08-24T13:18:15;3.25;;;1.98;;
18174;SDS011;9212;50.894;16.714;2023-08-24T13:20:42;2.88;;;1.65;;
18174;SDS011;9212;50.894;16.714;2023-08-24T13:23:09;8.05;;;3.60;;
18174;SDS011;9212;50.894;16.714;2023-08-24T13:25:38;2.55;;;1.90;;
18174;SDS011;9212;50.894;16.714;2023-08-24T13:28:06;2.53;;;2.17;;
18174;SDS011;9212;50.894;16.714;2023-08-24T13:30:33;4.70;;;1.92;;
18174;SDS011;9212;50.894;16.714;2023-08-24T13:33:00;5.68;;;1.85;;
18174;SDS011;9212;50.894;16.714;2023-08-24T13:35:27;1.83;;;1.70;;
18174;SDS011;9212;50.894;16.714;2023-08-24T13:37:57;3.08;;;1.80;;
18174;SDS011;9212;50.894;16.714;2023-08-24T13:40:24;2.45;;;1.90;;
18174;SDS011;9212;50.894;16.714;2023-08-24T13:42:52;5.68;;;2.00;;
18174;SDS011;9212;50.894;16.714;2023-08-24T13:45:19;4.47;;;1.80;;
18174;SDS011;9212;50.894;16.714;2023-08-24T13:47:46;3.35;;;2.20;;
18174;SDS011;9212;50.894;16.714;2023-08-24T13:50:13;4.70;;;2.10;;
18174;SDS011;9212;50.894;16.714;2023-08-24T13:52:42;2.15;;;1.60;;
18174;SDS011;9212;50.894;16.714;2023-08-24T13:55:10;4.28;;;2.05;;
18174;SDS011;9212;50.894;16.714;2023-08-24T13:57:37;2.05;;;1.90;;
18174;SDS011;9212;50.894;16.714;2023-08-24T14:00:06;5.85;;;2.10;;
18174;SDS011;9212;50.894;16.714;2023-08-24T14:02:34;3.10;;;2.20;;
18174;SDS011;9212;50.894;16.714;2023-08-24T14:05:01;8.20;;;2.30;;
18174;SDS011;9212;50.894;16.714;2023-08-24T14:07:28;2.78;;;2.13;;
18174;SDS011;9212;50.894;16.714;2023-08-24T14:09:57;2.40;;;1.80;;
18174;SDS011;9212;50.894;16.714;2023-08-24T14:12:24;2.35;;;2.08;;
18174;SDS011;9212;50.894;16.714;2023-08-24T14:14:51;4.18;;;2.20;;
18174;SDS011;9212;50.894;16.714;2023-08-24T14:17:20;3.25;;;2.08;;
18174;SDS011;9212;50.894;16.714;2023-08-24T14:19:46;3.30;;;1.88;;
18174;SDS011;9212;50.894;16.714;2023-08-24T14:22:16;9.43;;;1.80;;
18174;SDS011;9212;50.894;16.714;2023-08-24T14:24:46;3.35;;;1.83;;
18174;SDS011;9212;50.894;16.714;2023-08-24T14:27:13;2.42;;;2.22;;
18174;SDS011;9212;50.894;16.714;2023-08-24T14:29:40;4.70;;;2.00;;
18174;SDS011;9212;50.894;16.714;2023-08-24T14:32:07;1.80;;;1.70;;
18174;SDS011;9212;50.894;16.714;2023-08-24T14:34:37;3.13;;;1.98;;
18174;SDS011;9212;50.894;16.714;2023-08-24T14:37:05;4.15;;;1.83;;
18174;SDS011;9212;50.894;16.714;2023-08-24T14:39:33;3.63;;;2.17;;
18174;SDS011;9212;50.894;16.714;2023-08-24T14:42:00;2.17;;;1.95;;
18174;SDS011;9212;50.894;16.714;2023-08-24T14:44:30;4.35;;;2.00;;
18174;SDS011;9212;50.894;16.714;2023-08-24T14:46:57;6.85;;;2.15;;
18174;SDS011;9212;50.894;16.714;2023-08-24T14:49:25;2.28;;;2.08;;
18174;SDS011;9212;50.894;16.714;2023-08-24T14:51:54;3.53;;;2.00;;
18174;SDS011;9212;50.894;16.714;2023-08-24T14:54:22;2.92;;;1.95;;
18174;SDS011;9212;50.894;16.714;2023-08-24T14:56:50;8.45;;;1.65;;
18174;SDS011;9212;50.894;16.714;2023-08-24T14:59:19;1.90;;;1.80;;
18174;SDS011;9212;50.894;16.714;2023-08-24T15:01:47;1.98;;;1.77;;
18174;SDS011;9212;50.894;16.714;2023-08-24T15:04:15;5.53;;;1.80;;
18174;SDS011;9212;50.894;16.714;2023-08-24T15:06:43;4.53;;;1.65;;
18174;SDS011;9212;50.894;16.714;2023-08-24T15:09:12;2.13;;;1.92;;
18174;SDS011;9212;50.894;16.714;2023-08-24T15:11:40;3.40;;;1.90;;
18174;SDS011;9212;50.894;16.714;2023-08-24T15:14:08;2.28;;;2.10;;
18174;SDS011;9212;50.894;16.714;2023-08-24T15:16:36;2.03;;;1.70;;